Terminal Aerodrome Forecast
Issued by NWS Blacksburg, VA

Home | Current Version | Previous Version | Text Only | Print | Product List | Glossary On
Versions: 1 2 3 4 5 6 7 8 9 10 11 12 13 14 15 16 17 18 19 20 21 22 23 24 25 26
000
FTUS41 KRNK 301723
TAFBLF
TAF
KBLF 301723Z 3018/3118 21008KT P6SM VCSH BKN045
     FM310100 18007KT P6SM SCT045 BKN100
     FM310700 22004KT P6SM BKN050
     FM311400 24005KT P6SM SCT050=

USA.gov is the U.S. government's official web portal to all federal, state and local government web resources and services.